sensor_id;sensor_type;location;lat;lon;timestamp;P1;durP1;ratioP1;P2;durP2;ratioP2
75926;SDS011;64605;48.296;16.416;2023-04-06T00:01:30;16.77;;;10.30;;
75926;SDS011;64605;48.296;16.416;2023-04-06T00:03:56;16.75;;;9.75;;
75926;SDS011;64605;48.296;16.416;2023-04-06T00:06:22;13.23;;;9.18;;
75926;SDS011;64605;48.296;16.416;2023-04-06T00:08:47;15.10;;;9.00;;
75926;SDS011;64605;48.296;16.416;2023-04-06T00:11:13;11.85;;;8.35;;
75926;SDS011;64605;48.296;16.416;2023-04-06T00:13:38;15.27;;;8.90;;
75926;SDS011;64605;48.296;16.416;2023-04-06T00:16:05;12.00;;;7.80;;
75926;SDS011;64605;48.296;16.416;2023-04-06T00:18:31;15.02;;;9.10;;
75926;SDS011;64605;48.296;16.416;2023-04-06T00:20:57;12.88;;;8.52;;
75926;SDS011;64605;48.296;16.416;2023-04-06T00:23:23;15.40;;;8.75;;
75926;SDS011;64605;48.296;16.416;2023-04-06T00:25:48;11.73;;;8.48;;
75926;SDS011;64605;48.296;16.416;2023-04-06T00:28:14;12.75;;;7.80;;
75926;SDS011;64605;48.296;16.416;2023-04-06T00:30:40;15.60;;;8.23;;
75926;SDS011;64605;48.296;16.416;2023-04-06T00:33:06;12.15;;;7.38;;
75926;SDS011;64605;48.296;16.416;2023-04-06T00:35:31;11.38;;;7.38;;
75926;SDS011;64605;48.296;16.416;2023-04-06T00:37:57;11.40;;;7.60;;
75926;SDS011;64605;48.296;16.416;2023-04-06T00:40:23;11.90;;;7.32;;
75926;SDS011;64605;48.296;16.416;2023-04-06T00:42:49;12.18;;;7.22;;
75926;SDS011;64605;48.296;16.416;2023-04-06T00:45:15;11.95;;;8.05;;
75926;SDS011;64605;48.296;16.416;2023-04-06T00:47:41;11.98;;;7.47;;
75926;SDS011;64605;48.296;16.416;2023-04-06T00:50:07;12.23;;;7.60;;
75926;SDS011;64605;48.296;16.416;2023-04-06T00:52:33;14.65;;;7.57;;
75926;SDS011;64605;48.296;16.416;2023-04-06T00:54:59;13.35;;;7.53;;
75926;SDS011;64605;48.296;16.416;2023-04-06T00:57:25;12.43;;;8.07;;
75926;SDS011;64605;48.296;16.416;2023-04-06T00:59:51;10.55;;;7.45;;
75926;SDS011;64605;48.296;16.416;2023-04-06T01:02:17;11.75;;;7.13;;
75926;SDS011;64605;48.296;16.416;2023-04-06T01:04:43;13.55;;;7.72;;
75926;SDS011;64605;48.296;16.416;2023-04-06T01:07:09;11.13;;;7.60;;
75926;SDS011;64605;48.296;16.416;2023-04-06T01:09:35;12.43;;;7.38;;
75926;SDS011;64605;48.296;16.416;2023-04-06T01:12:01;14.32;;;8.05;;
75926;SDS011;64605;48.296;16.416;2023-04-06T01:14:27;12.55;;;7.55;;
75926;SDS011;64605;48.296;16.416;2023-04-06T01:16:53;13.73;;;9.00;;
75926;SDS011;64605;48.296;16.416;2023-04-06T01:19:19;11.10;;;8.18;;
75926;SDS011;64605;48.296;16.416;2023-04-06T01:21:46;11.80;;;7.70;;
75926;SDS011;64605;48.296;16.416;2023-04-06T01:24:11;11.05;;;7.57;;
75926;SDS011;64605;48.296;16.416;2023-04-06T01:26:38;10.50;;;7.20;;
75926;SDS011;64605;48.296;16.416;2023-04-06T01:29:03;12.55;;;7.97;;
75926;SDS011;64605;48.296;16.416;2023-04-06T01:31:29;11.60;;;8.10;;
75926;SDS011;64605;48.296;16.416;2023-04-06T01:33:55;9.95;;;7.82;;
75926;SDS011;64605;48.296;16.416;2023-04-06T01:36:21;10.23;;;7.45;;
75926;SDS011;64605;48.296;16.416;2023-04-06T01:38:47;11.73;;;7.95;;
75926;SDS011;64605;48.296;16.416;2023-04-06T01:41:12;10.98;;;7.65;;
75926;SDS011;64605;48.296;16.416;2023-04-06T01:43:38;12.15;;;8.00;;
75926;SDS011;64605;48.296;16.416;2023-04-06T01:46:04;12.00;;;7.63;;
75926;SDS011;64605;48.296;16.416;2023-04-06T01:48:30;11.27;;;7.47;;
75926;SDS011;64605;48.296;16.416;2023-04-06T01:50:56;14.32;;;7.60;;
75926;SDS011;64605;48.296;16.416;2023-04-06T01:53:22;12.30;;;7.15;;
75926;SDS011;64605;48.296;16.416;2023-04-06T01:55:47;12.25;;;8.20;;
75926;SDS011;64605;48.296;16.416;2023-04-06T01:58:13;11.13;;;7.43;;
75926;SDS011;64605;48.296;16.416;2023-04-06T02:00:39;10.52;;;7.90;;
75926;SDS011;64605;48.296;16.416;2023-04-06T02:03:05;10.38;;;7.78;;
75926;SDS011;64605;48.296;16.416;2023-04-06T02:05:31;9.27;;;7.18;;
75926;SDS011;64605;48.296;16.416;2023-04-06T02:08:02;16.48;;;7.72;;
75926;SDS011;64605;48.296;16.416;2023-04-06T02:10:30;12.50;;;7.72;;
75926;SDS011;64605;48.296;16.416;2023-04-06T02:12:56;9.90;;;7.45;;
75926;SDS011;64605;48.296;16.416;2023-04-06T02:15:22;10.15;;;6.95;;
75926;SDS011;64605;48.296;16.416;2023-04-06T02:17:47;10.98;;;7.47;;
75926;SDS011;64605;48.296;16.416;2023-04-06T02:20:13;13.75;;;8.00;;
75926;SDS011;64605;48.296;16.416;2023-04-06T02:22:39;12.07;;;7.35;;
75926;SDS011;64605;48.296;16.416;2023-04-06T02:25:05;12.73;;;8.10;;
75926;SDS011;64605;48.296;16.416;2023-04-06T02:27:31;11.15;;;7.32;;
75926;SDS011;64605;48.296;16.416;2023-04-06T02:29:56;10.27;;;7.22;;
75926;SDS011;64605;48.296;16.416;2023-04-06T02:32:22;11.02;;;7.25;;
75926;SDS011;64605;48.296;16.416;2023-04-06T02:34:47;10.10;;;6.80;;
75926;SDS011;64605;48.296;16.416;2023-04-06T02:37:13;10.68;;;6.55;;
75926;SDS011;64605;48.296;16.416;2023-04-06T02:39:39;12.48;;;7.15;;
75926;SDS011;64605;48.296;16.416;2023-04-06T02:42:05;9.30;;;6.55;;
75926;SDS011;64605;48.296;16.416;2023-04-06T02:44:31;10.73;;;6.30;;
75926;SDS011;64605;48.296;16.416;2023-04-06T02:46:57;8.55;;;6.35;;
75926;SDS011;64605;48.296;16.416;2023-04-06T02:49:22;8.85;;;6.30;;
75926;SDS011;64605;48.296;16.416;2023-04-06T02:51:48;10.25;;;6.32;;
75926;SDS011;64605;48.296;16.416;2023-04-06T02:54:14;8.77;;;6.22;;
75926;SDS011;64605;48.296;16.416;2023-04-06T02:56:40;11.73;;;6.43;;
75926;SDS011;64605;48.296;16.416;2023-04-06T02:59:05;10.35;;;6.60;;
75926;SDS011;64605;48.296;16.416;2023-04-06T03:01:31;10.13;;;5.97;;
75926;SDS011;64605;48.296;16.416;2023-04-06T03:03:57;6.97;;;5.80;;
75926;SDS011;64605;48.296;16.416;2023-04-06T03:06:22;9.13;;;6.15;;
75926;SDS011;64605;48.296;16.416;2023-04-06T03:08:48;8.65;;;6.53;;
75926;SDS011;64605;48.296;16.416;2023-04-06T03:11:14;10.13;;;6.65;;
75926;SDS011;64605;48.296;16.416;2023-04-06T03:13:39;9.48;;;6.88;;
75926;SDS011;64605;48.296;16.416;2023-04-06T03:16:05;13.88;;;6.22;;
75926;SDS011;64605;48.296;16.416;2023-04-06T03:18:31;10.25;;;6.85;;
75926;SDS011;64605;48.296;16.416;2023-04-06T03:20:57;6.80;;;5.75;;
75926;SDS011;64605;48.296;16.416;2023-04-06T03:23:22;9.23;;;5.75;;
75926;SDS011;64605;48.296;16.416;2023-04-06T03:25:48;8.98;;;6.47;;
75926;SDS011;64605;48.296;16.416;2023-04-06T03:28:14;8.55;;;6.35;;
75926;SDS011;64605;48.296;16.416;2023-04-06T03:30:41;13.75;;;7.35;;
75926;SDS011;64605;48.296;16.416;2023-04-06T03:33:06;8.32;;;6.60;;
75926;SDS011;64605;48.296;16.416;2023-04-06T03:35:32;9.63;;;7.00;;
75926;SDS011;64605;48.296;16.416;2023-04-06T03:37:58;9.95;;;6.88;;
75926;SDS011;64605;48.296;16.416;2023-04-06T03:40:24;10.10;;;6.22;;
75926;SDS011;64605;48.296;16.416;2023-04-06T03:42:49;11.30;;;6.50;;
75926;SDS011;64605;48.296;16.416;2023-04-06T03:45:15;8.98;;;6.50;;
75926;SDS011;64605;48.296;16.416;2023-04-06T03:47:41;13.75;;;7.53;;
75926;SDS011;64605;48.296;16.416;2023-04-06T03:50:07;8.30;;;6.40;;
75926;SDS011;64605;48.296;16.416;2023-04-06T03:52:34;9.55;;;6.60;;
75926;SDS011;64605;48.296;16.416;2023-04-06T03:55:00;9.65;;;6.50;;
75926;SDS011;64605;48.296;16.416;2023-04-06T03:57:25;8.80;;;6.20;;
75926;SDS011;64605;48.296;16.416;2023-04-06T03:59:51;10.30;;;6.88;;
75926;SDS011;64605;48.296;16.416;2023-04-06T04:02:17;9.45;;;6.93;;
75926;SDS011;64605;48.296;16.416;2023-04-06T04:04:42;11.18;;;7.00;;
75926;SDS011;64605;48.296;16.416;2023-04-06T04:07:08;9.63;;;6.95;;
75926;SDS011;64605;48.296;16.416;2023-04-06T04:09:33;12.18;;;7.18;;
75926;SDS011;64605;48.296;16.416;2023-04-06T04:11:59;11.27;;;6.53;;
75926;SDS011;64605;48.296;16.416;2023-04-06T04:14:25;11.35;;;7.07;;
75926;SDS011;64605;48.296;16.416;2023-04-06T04:16:51;11.90;;;7.10;;
75926;SDS011;64605;48.296;16.416;2023-04-06T04:19:17;11.07;;;7.10;;
75926;SDS011;64605;48.296;16.416;2023-04-06T04:21:43;9.77;;;7.30;;
75926;SDS011;64605;48.296;16.416;2023-04-06T04:24:12;9.60;;;7.13;;
75926;SDS011;64605;48.296;16.416;2023-04-06T04:26:38;8.85;;;6.35;;
75926;SDS011;64605;48.296;16.416;2023-04-06T04:29:05;10.15;;;7.45;;
75926;SDS011;64605;48.296;16.416;2023-04-06T04:31:31;11.30;;;7.55;;
75926;SDS011;64605;48.296;16.416;2023-04-06T04:33:57;9.13;;;7.05;;
75926;SDS011;64605;48.296;16.416;2023-04-06T04:36:22;10.93;;;8.13;;
75926;SDS011;64605;48.296;16.416;2023-04-06T04:38:50;8.52;;;6.53;;
75926;SDS011;64605;48.296;16.416;2023-04-06T04:41:16;11.27;;;7.55;;
75926;SDS011;64605;48.296;16.416;2023-04-06T04:43:42;9.93;;;7.82;;
75926;SDS011;64605;48.296;16.416;2023-04-06T04:46:07;13.25;;;8.00;;
75926;SDS011;64605;48.296;16.416;2023-04-06T04:48:33;12.85;;;8.75;;
75926;SDS011;64605;48.296;16.416;2023-04-06T04:50:59;14.40;;;8.27;;
75926;SDS011;64605;48.296;16.416;2023-04-06T04:53:25;14.68;;;9.13;;
75926;SDS011;64605;48.296;16.416;2023-04-06T04:55:51;11.18;;;9.13;;
75926;SDS011;64605;48.296;16.416;2023-04-06T04:58:16;11.93;;;8.80;;
75926;SDS011;64605;48.296;16.416;2023-04-06T05:00:44;14.65;;;9.05;;
75926;SDS011;64605;48.296;16.416;2023-04-06T05:03:14;20.25;;;10.52;;
75926;SDS011;64605;48.296;16.416;2023-04-06T05:05:48;19.52;;;13.32;;
75926;SDS011;64605;48.296;16.416;2023-04-06T05:08:14;17.95;;;12.02;;
75926;SDS011;64605;48.296;16.416;2023-04-06T05:10:40;13.70;;;9.90;;
75926;SDS011;64605;48.296;16.416;2023-04-06T05:13:06;11.82;;;8.85;;
75926;SDS011;64605;48.296;16.416;2023-04-06T05:15:32;11.10;;;8.57;;
75926;SDS011;64605;48.296;16.416;2023-04-06T05:18:03;13.77;;;8.88;;
75926;SDS011;64605;48.296;16.416;2023-04-06T05:20:29;10.93;;;8.70;;
75926;SDS011;64605;48.296;16.416;2023-04-06T05:22:55;12.63;;;9.45;;
75926;SDS011;64605;48.296;16.416;2023-04-06T05:25:21;13.38;;;8.45;;
75926;SDS011;64605;48.296;16.416;2023-04-06T05:27:47;10.88;;;8.43;;
75926;SDS011;64605;48.296;16.416;2023-04-06T05:30:12;12.70;;;8.82;;
75926;SDS011;64605;48.296;16.416;2023-04-06T05:32:38;10.82;;;8.27;;
75926;SDS011;64605;48.296;16.416;2023-04-06T05:35:04;11.02;;;8.70;;
75926;SDS011;64605;48.296;16.416;2023-04-06T05:37:30;11.27;;;8.98;;
75926;SDS011;64605;48.296;16.416;2023-04-06T05:39:56;13.52;;;8.48;;
75926;SDS011;64605;48.296;16.416;2023-04-06T05:42:22;13.43;;;8.75;;
75926;SDS011;64605;48.296;16.416;2023-04-06T05:44:47;10.50;;;8.00;;
75926;SDS011;64605;48.296;16.416;2023-04-06T05:47:13;14.20;;;8.90;;
75926;SDS011;64605;48.296;16.416;2023-04-06T05:49:41;10.93;;;7.85;;
75926;SDS011;64605;48.296;16.416;2023-04-06T05:52:07;12.38;;;8.48;;
75926;SDS011;64605;48.296;16.416;2023-04-06T05:54:33;17.10;;;8.63;;
75926;SDS011;64605;48.296;16.416;2023-04-06T05:57:01;11.93;;;8.82;;
75926;SDS011;64605;48.296;16.416;2023-04-06T05:59:28;10.10;;;8.68;;
75926;SDS011;64605;48.296;16.416;2023-04-06T06:01:55;11.73;;;7.82;;
75926;SDS011;64605;48.296;16.416;2023-04-06T06:04:20;10.95;;;8.02;;
75926;SDS011;64605;48.296;16.416;2023-04-06T06:06:46;12.52;;;8.63;;
75926;SDS011;64605;48.296;16.416;2023-04-06T06:09:12;13.43;;;8.55;;
75926;SDS011;64605;48.296;16.416;2023-04-06T06:11:37;12.95;;;9.48;;
75926;SDS011;64605;48.296;16.416;2023-04-06T06:14:03;12.80;;;9.15;;
75926;SDS011;64605;48.296;16.416;2023-04-06T06:16:29;14.85;;;9.23;;
75926;SDS011;64605;48.296;16.416;2023-04-06T06:18:54;11.35;;;8.65;;
75926;SDS011;64605;48.296;16.416;2023-04-06T06:21:20;12.73;;;9.20;;
75926;SDS011;64605;48.296;16.416;2023-04-06T06:23:46;11.68;;;8.45;;
75926;SDS011;64605;48.296;16.416;2023-04-06T06:26:14;13.98;;;9.48;;
75926;SDS011;64605;48.296;16.416;2023-04-06T06:28:40;14.57;;;9.25;;
75926;SDS011;64605;48.296;16.416;2023-04-06T06:31:05;25.35;;;10.35;;
75926;SDS011;64605;48.296;16.416;2023-04-06T06:33:32;25.80;;;11.48;;
75926;SDS011;64605;48.296;16.416;2023-04-06T06:35:57;18.75;;;10.57;;
75926;SDS011;64605;48.296;16.416;2023-04-06T06:38:23;20.48;;;10.68;;
75926;SDS011;64605;48.296;16.416;2023-04-06T06:40:49;13.18;;;9.30;;
75926;SDS011;64605;48.296;16.416;2023-04-06T06:43:14;25.67;;;11.88;;
75926;SDS011;64605;48.296;16.416;2023-04-06T06:45:40;26.17;;;11.48;;
75926;SDS011;64605;48.296;16.416;2023-04-06T06:48:06;20.33;;;10.98;;
75926;SDS011;64605;48.296;16.416;2023-04-06T06:50:31;18.13;;;10.50;;
75926;SDS011;64605;48.296;16.416;2023-04-06T06:52:57;22.13;;;9.60;;
75926;SDS011;64605;48.296;16.416;2023-04-06T06:55:23;20.38;;;11.40;;
75926;SDS011;64605;48.296;16.416;2023-04-06T06:57:48;16.42;;;9.43;;
75926;SDS011;64605;48.296;16.416;2023-04-06T07:00:14;16.83;;;9.43;;
75926;SDS011;64605;48.296;16.416;2023-04-06T07:02:40;12.10;;;9.07;;
75926;SDS011;64605;48.296;16.416;2023-04-06T07:05:06;14.50;;;9.98;;
75926;SDS011;64605;48.296;16.416;2023-04-06T07:07:32;15.65;;;9.35;;
75926;SDS011;64605;48.296;16.416;2023-04-06T07:09:59;14.13;;;10.00;;
75926;SDS011;64605;48.296;16.416;2023-04-06T07:12:24;21.60;;;10.07;;
75926;SDS011;64605;48.296;16.416;2023-04-06T07:14:50;21.20;;;11.95;;
75926;SDS011;64605;48.296;16.416;2023-04-06T07:17:16;16.52;;;10.77;;
75926;SDS011;64605;48.296;16.416;2023-04-06T07:19:42;23.02;;;10.15;;
75926;SDS011;64605;48.296;16.416;2023-04-06T07:22:08;11.13;;;9.30;;
75926;SDS011;64605;48.296;16.416;2023-04-06T07:24:33;13.00;;;9.02;;
75926;SDS011;64605;48.296;16.416;2023-04-06T07:26:59;13.40;;;9.52;;
75926;SDS011;64605;48.296;16.416;2023-04-06T07:29:28;13.88;;;8.43;;
75926;SDS011;64605;48.296;16.416;2023-04-06T07:31:54;15.65;;;9.07;;
75926;SDS011;64605;48.296;16.416;2023-04-06T07:34:20;12.10;;;9.20;;
75926;SDS011;64605;48.296;16.416;2023-04-06T07:36:46;16.52;;;10.05;;
75926;SDS011;64605;48.296;16.416;2023-04-06T07:39:12;13.68;;;8.93;;
75926;SDS011;64605;48.296;16.416;2023-04-06T07:41:37;12.70;;;8.77;;
75926;SDS011;64605;48.296;16.416;2023-04-06T07:44:03;19.55;;;8.88;;
75926;SDS011;64605;48.296;16.416;2023-04-06T07:46:29;26.63;;;9.80;;
75926;SDS011;64605;48.296;16.416;2023-04-06T07:48:56;12.85;;;7.43;;
75926;SDS011;64605;48.296;16.416;2023-04-06T07:51:23;27.58;;;7.82;;
75926;SDS011;64605;48.296;16.416;2023-04-06T07:53:50;11.82;;;7.82;;
75926;SDS011;64605;48.296;16.416;2023-04-06T07:56:16;8.95;;;8.05;;
75926;SDS011;64605;48.296;16.416;2023-04-06T07:58:41;17.95;;;8.32;;
75926;SDS011;64605;48.296;16.416;2023-04-06T08:01:07;47.95;;;9.75;;
75926;SDS011;64605;48.296;16.416;2023-04-06T08:03:33;16.95;;;7.97;;
75926;SDS011;64605;48.296;16.416;2023-04-06T08:05:59;16.30;;;7.35;;
75926;SDS011;64605;48.296;16.416;2023-04-06T08:08:25;13.25;;;7.25;;
75926;SDS011;64605;48.296;16.416;2023-04-06T08:10:51;11.63;;;6.68;;
75926;SDS011;64605;48.296;16.416;2023-04-06T08:13:17;13.75;;;7.18;;
75926;SDS011;64605;48.296;16.416;2023-04-06T08:15:42;14.00;;;7.72;;
75926;SDS011;64605;48.296;16.416;2023-04-06T08:18:08;12.05;;;7.55;;
75926;SDS011;64605;48.296;16.416;2023-04-06T08:20:34;12.40;;;7.60;;
75926;SDS011;64605;48.296;16.416;2023-04-06T08:23:00;9.98;;;7.30;;
75926;SDS011;64605;48.296;16.416;2023-04-06T08:25:26;14.85;;;7.90;;
75926;SDS011;64605;48.296;16.416;2023-04-06T08:27:52;10.80;;;7.25;;
75926;SDS011;64605;48.296;16.416;2023-04-06T08:30:17;12.95;;;7.70;;
75926;SDS011;64605;48.296;16.416;2023-04-06T08:32:44;15.18;;;7.85;;
75926;SDS011;64605;48.296;16.416;2023-04-06T08:35:11;11.20;;;6.97;;
75926;SDS011;64605;48.296;16.416;2023-04-06T08:37:37;8.45;;;7.00;;
75926;SDS011;64605;48.296;16.416;2023-04-06T08:40:03;9.07;;;7.13;;
75926;SDS011;64605;48.296;16.416;2023-04-06T08:42:31;8.60;;;7.05;;
75926;SDS011;64605;48.296;16.416;2023-04-06T08:44:58;8.32;;;6.72;;
75926;SDS011;64605;48.296;16.416;2023-04-06T08:47:24;9.73;;;6.65;;
75926;SDS011;64605;48.296;16.416;2023-04-06T08:49:50;11.98;;;7.07;;
75926;SDS011;64605;48.296;16.416;2023-04-06T08:52:17;8.43;;;6.05;;
75926;SDS011;64605;48.296;16.416;2023-04-06T08:54:44;7.40;;;6.57;;
75926;SDS011;64605;48.296;16.416;2023-04-06T08:57:09;10.00;;;6.43;;
75926;SDS011;64605;48.296;16.416;2023-04-06T08:59:35;8.48;;;5.88;;
75926;SDS011;64605;48.296;16.416;2023-04-06T09:02:03;22.88;;;5.72;;
75926;SDS011;64605;48.296;16.416;2023-04-06T09:04:32;4.72;;;4.05;;
75926;SDS011;64605;48.296;16.416;2023-04-06T09:07:00;14.95;;;4.93;;
75926;SDS011;64605;48.296;16.416;2023-04-06T09:09:25;12.15;;;4.97;;
75926;SDS011;64605;48.296;16.416;2023-04-06T09:11:51;7.60;;;3.58;;
75926;SDS011;64605;48.296;16.416;2023-04-06T09:14:17;5.97;;;3.85;;
75926;SDS011;64605;48.296;16.416;2023-04-06T09:17:02;6.53;;;4.30;;
75926;SDS011;64605;48.296;16.416;2023-04-06T09:19:27;7.85;;;3.88;;
75926;SDS011;64605;48.296;16.416;2023-04-06T09:22:05;45.20;;;6.70;;
75926;SDS011;64605;48.296;16.416;2023-04-06T09:24:44;7.65;;;4.60;;
75926;SDS011;64605;48.296;16.416;2023-04-06T09:27:13;6.55;;;4.60;;
75926;SDS011;64605;48.296;16.416;2023-04-06T09:29:40;6.88;;;4.93;;
75926;SDS011;64605;48.296;16.416;2023-04-06T09:32:06;4.47;;;3.90;;
75926;SDS011;64605;48.296;16.416;2023-04-06T09:34:35;5.13;;;4.57;;
75926;SDS011;64605;48.296;16.416;2023-04-06T09:37:11;24.38;;;4.90;;
75926;SDS011;64605;48.296;16.416;2023-04-06T09:39:40;5.47;;;4.38;;
75926;SDS011;64605;48.296;16.416;2023-04-06T09:42:06;10.07;;;4.22;;
75926;SDS011;64605;48.296;16.416;2023-04-06T09:44:32;45.05;;;6.35;;
75926;SDS011;64605;48.296;16.416;2023-04-06T09:46:58;10.93;;;4.70;;
75926;SDS011;64605;48.296;16.416;2023-04-06T09:49:24;5.22;;;3.85;;
75926;SDS011;64605;48.296;16.416;2023-04-06T09:51:57;5.30;;;4.53;;
75926;SDS011;64605;48.296;16.416;2023-04-06T09:57:04;6.85;;;3.45;;
75926;SDS011;64605;48.296;16.416;2023-04-06T10:02:18;11.70;;;3.40;;
75926;SDS011;64605;48.296;16.416;2023-04-06T10:04:56;6.35;;;3.50;;
75926;SDS011;64605;48.296;16.416;2023-04-06T10:07:27;13.43;;;10.02;;
75926;SDS011;64605;48.296;16.416;2023-04-06T10:09:53;22.60;;;5.07;;
75926;SDS011;64605;48.296;16.416;2023-04-06T10:12:20;13.82;;;3.47;;
75926;SDS011;64605;48.296;16.416;2023-04-06T10:14:45;14.73;;;3.78;;
75926;SDS011;64605;48.296;16.416;2023-04-06T10:17:11;11.15;;;3.63;;
75926;SDS011;64605;48.296;16.416;2023-04-06T10:19:51;18.45;;;8.80;;
75926;SDS011;64605;48.296;16.416;2023-04-06T10:22:32;8.77;;;4.65;;
75926;SDS011;64605;48.296;16.416;2023-04-06T10:25:15;6.88;;;3.28;;
75926;SDS011;64605;48.296;16.416;2023-04-06T10:27:41;8.77;;;3.33;;
75926;SDS011;64605;48.296;16.416;2023-04-06T10:30:07;11.75;;;4.22;;
75926;SDS011;64605;48.296;16.416;2023-04-06T10:32:36;241.10;;;19.20;;
75926;SDS011;64605;48.296;16.416;2023-04-06T10:35:09;21.73;;;4.25;;
75926;SDS011;64605;48.296;16.416;2023-04-06T10:37:51;7.05;;;3.03;;
75926;SDS011;64605;48.296;16.416;2023-04-06T10:40:25;6.25;;;3.65;;
75926;SDS011;64605;48.296;16.416;2023-04-06T10:42:55;7.32;;;3.53;;
75926;SDS011;64605;48.296;16.416;2023-04-06T10:45:31;25.35;;;4.95;;
75926;SDS011;64605;48.296;16.416;2023-04-06T10:47:57;27.48;;;3.90;;
75926;SDS011;64605;48.296;16.416;2023-04-06T10:50:23;4.97;;;3.28;;
75926;SDS011;64605;48.296;16.416;2023-04-06T10:53:01;3.17;;;2.85;;
75926;SDS011;64605;48.296;16.416;2023-04-06T10:55:28;16.33;;;3.65;;
75926;SDS011;64605;48.296;16.416;2023-04-06T10:57:54;4.65;;;2.85;;
75926;SDS011;64605;48.296;16.416;2023-04-06T11:00:20;8.15;;;3.70;;
75926;SDS011;64605;48.296;16.416;2023-04-06T11:02:46;4.15;;;3.10;;
75926;SDS011;64605;48.296;16.416;2023-04-06T11:05:12;3.30;;;3.00;;
75926;SDS011;64605;48.296;16.416;2023-04-06T11:07:39;8.93;;;3.25;;
75926;SDS011;64605;48.296;16.416;2023-04-06T11:10:05;6.75;;;3.45;;
75926;SDS011;64605;48.296;16.416;2023-04-06T11:12:32;112.47;;;8.90;;
75926;SDS011;64605;48.296;16.416;2023-04-06T11:17:29;9.38;;;3.28;;
75926;SDS011;64605;48.296;16.416;2023-04-06T11:19:57;15.05;;;4.07;;
75926;SDS011;64605;48.296;16.416;2023-04-06T11:22:23;14.95;;;3.00;;
75926;SDS011;64605;48.296;16.416;2023-04-06T11:24:50;9.45;;;3.90;;
75926;SDS011;64605;48.296;16.416;2023-04-06T11:27:16;83.25;;;8.07;;
75926;SDS011;64605;48.296;16.416;2023-04-06T11:29:43;51.70;;;7.32;;
75926;SDS011;64605;48.296;16.416;2023-04-06T11:32:11;76.13;;;8.38;;
75926;SDS011;64605;48.296;16.416;2023-04-06T11:34:44;193.52;;;15.68;;
75926;SDS011;64605;48.296;16.416;2023-04-06T11:37:12;90.38;;;9.73;;
75926;SDS011;64605;48.296;16.416;2023-04-06T11:42:25;11.15;;;3.72;;
75926;SDS011;64605;48.296;16.416;2023-04-06T11:44:56;27.35;;;5.20;;
75926;SDS011;64605;48.296;16.416;2023-04-06T11:47:29;36.80;;;5.10;;
75926;SDS011;64605;48.296;16.416;2023-04-06T11:49:56;6.05;;;3.13;;
75926;SDS011;64605;48.296;16.416;2023-04-06T11:52:38;6.18;;;3.80;;
75926;SDS011;64605;48.296;16.416;2023-04-06T11:55:11;16.30;;;3.72;;
75926;SDS011;64605;48.296;16.416;2023-04-06T11:57:38;16.83;;;4.20;;
75926;SDS011;64605;48.296;16.416;2023-04-06T12:00:03;12.60;;;4.03;;
75926;SDS011;64605;48.296;16.416;2023-04-06T12:02:30;12.10;;;4.25;;
75926;SDS011;64605;48.296;16.416;2023-04-06T12:04:57;39.70;;;6.60;;
75926;SDS011;64605;48.296;16.416;2023-04-06T12:07:22;7.35;;;3.58;;
75926;SDS011;64605;48.296;16.416;2023-04-06T12:09:48;26.50;;;4.78;;
75926;SDS011;64605;48.296;16.416;2023-04-06T12:12:14;5.93;;;3.22;;
75926;SDS011;64605;48.296;16.416;2023-04-06T12:14:39;13.18;;;3.80;;
75926;SDS011;64605;48.296;16.416;2023-04-06T12:17:05;6.40;;;3.85;;
75926;SDS011;64605;48.296;16.416;2023-04-06T12:19:31;5.72;;;3.17;;
75926;SDS011;64605;48.296;16.416;2023-04-06T12:21:56;79.43;;;7.70;;
75926;SDS011;64605;48.296;16.416;2023-04-06T12:24:22;140.18;;;13.73;;
75926;SDS011;64605;48.296;16.416;2023-04-06T12:26:48;166.15;;;15.90;;
75926;SDS011;64605;48.296;16.416;2023-04-06T12:29:14;47.72;;;7.13;;
75926;SDS011;64605;48.296;16.416;2023-04-06T12:31:39;128.25;;;11.57;;
75926;SDS011;64605;48.296;16.416;2023-04-06T12:34:09;18.95;;;4.43;;
75926;SDS011;64605;48.296;16.416;2023-04-06T12:36:36;12.75;;;4.35;;
75926;SDS011;64605;48.296;16.416;2023-04-06T12:39:02;20.05;;;4.45;;
75926;SDS011;64605;48.296;16.416;2023-04-06T12:41:28;12.55;;;3.72;;
75926;SDS011;64605;48.296;16.416;2023-04-06T12:43:54;44.85;;;6.32;;
75926;SDS011;64605;48.296;16.416;2023-04-06T12:46:20;65.57;;;7.45;;
75926;SDS011;64605;48.296;16.416;2023-04-06T12:48:45;41.42;;;5.75;;
75926;SDS011;64605;48.296;16.416;2023-04-06T12:51:11;8.20;;;3.35;;
75926;SDS011;64605;48.296;16.416;2023-04-06T12:53:37;7.60;;;3.22;;
75926;SDS011;64605;48.296;16.416;2023-04-06T12:56:09;6.45;;;3.88;;
75926;SDS011;64605;48.296;16.416;2023-04-06T12:58:39;23.30;;;4.18;;
75926;SDS011;64605;48.296;16.416;2023-04-06T13:01:06;43.42;;;5.47;;
75926;SDS011;64605;48.296;16.416;2023-04-06T13:03:32;31.63;;;5.32;;
75926;SDS011;64605;48.296;16.416;2023-04-06T13:05:59;16.63;;;3.70;;
75926;SDS011;64605;48.296;16.416;2023-04-06T13:08:25;32.55;;;4.82;;
75926;SDS011;64605;48.296;16.416;2023-04-06T13:10:52;13.38;;;3.97;;
75926;SDS011;64605;48.296;16.416;2023-04-06T13:13:25;12.18;;;3.63;;
75926;SDS011;64605;48.296;16.416;2023-04-06T13:15:53;9.77;;;4.68;;
75926;SDS011;64605;48.296;16.416;2023-04-06T13:18:23;11.48;;;4.47;;
75926;SDS011;64605;48.296;16.416;2023-04-06T13:20:49;8.80;;;4.53;;
75926;SDS011;64605;48.296;16.416;2023-04-06T13:23:15;32.25;;;5.45;;
75926;SDS011;64605;48.296;16.416;2023-04-06T13:25:41;34.53;;;6.00;;
75926;SDS011;64605;48.296;16.416;2023-04-06T13:28:07;120.88;;;9.32;;
75926;SDS011;64605;48.296;16.416;2023-04-06T13:30:33;20.55;;;5.40;;
75926;SDS011;64605;48.296;16.416;2023-04-06T13:33:00;65.03;;;7.78;;
75926;SDS011;64605;48.296;16.416;2023-04-06T13:35:26;55.85;;;6.72;;
75926;SDS011;64605;48.296;16.416;2023-04-06T13:37:52;28.50;;;5.15;;
75926;SDS011;64605;48.296;16.416;2023-04-06T13:40:18;4.85;;;3.50;;
75926;SDS011;64605;48.296;16.416;2023-04-06T13:42:44;24.92;;;4.38;;
75926;SDS011;64605;48.296;16.416;2023-04-06T13:45:11;17.85;;;4.60;;
75926;SDS011;64605;48.296;16.416;2023-04-06T13:47:37;6.97;;;3.55;;
75926;SDS011;64605;48.296;16.416;2023-04-06T13:50:02;9.45;;;4.05;;
75926;SDS011;64605;48.296;16.416;2023-04-06T13:52:29;13.65;;;4.10;;
75926;SDS011;64605;48.296;16.416;2023-04-06T13:54:54;57.17;;;5.80;;
75926;SDS011;64605;48.296;16.416;2023-04-06T13:57:20;31.20;;;4.35;;
75926;SDS011;64605;48.296;16.416;2023-04-06T13:59:46;5.18;;;3.78;;
75926;SDS011;64605;48.296;16.416;2023-04-06T14:02:12;30.67;;;5.57;;
75926;SDS011;64605;48.296;16.416;2023-04-06T14:04:37;25.58;;;4.90;;
75926;SDS011;64605;48.296;16.416;2023-04-06T14:07:03;12.35;;;3.70;;
75926;SDS011;64605;48.296;16.416;2023-04-06T14:09:32;17.00;;;4.78;;
75926;SDS011;64605;48.296;16.416;2023-04-06T14:11:58;18.60;;;4.65;;
75926;SDS011;64605;48.296;16.416;2023-04-06T14:14:23;8.52;;;3.60;;
75926;SDS011;64605;48.296;16.416;2023-04-06T14:16:49;6.63;;;4.43;;
75926;SDS011;64605;48.296;16.416;2023-04-06T14:19:16;23.50;;;4.82;;
75926;SDS011;64605;48.296;16.416;2023-04-06T14:21:46;5.32;;;3.97;;
75926;SDS011;64605;48.296;16.416;2023-04-06T14:24:17;28.73;;;6.00;;
75926;SDS011;64605;48.296;16.416;2023-04-06T14:26:43;12.77;;;4.90;;
75926;SDS011;64605;48.296;16.416;2023-04-06T14:29:09;7.88;;;3.92;;
75926;SDS011;64605;48.296;16.416;2023-04-06T14:31:35;5.82;;;3.90;;